createdAt,value
2019-04-16T00:01:48.506Z,100674.03
2019-04-16T00:04:31.575Z,100672.39
2019-04-16T00:07:22.306Z,100667.51
2019-04-16T00:10:22.582Z,100671.22
2019-04-16T00:13:00.080Z,100677.23
2019-04-16T00:15:32.625Z,100684.91
2019-04-16T00:18:05.572Z,100681.03
2019-04-16T00:20:43.837Z,100671.58
2019-04-16T00:23:22.764Z,100661.56
2019-04-16T00:25:56.405Z,100656.56
2019-04-16T00:28:30.769Z,100661.31
2019-04-16T00:31:07.299Z,100651.55
2019-04-16T00:33:42.849Z,100648.19
2019-04-16T00:36:15.355Z,100656.78
2019-04-16T00:38:53.814Z,100669.70
2019-04-16T00:41:24.689Z,100679.58
2019-04-16T00:43:57.978Z,100680.14
2019-04-16T00:46:30.851Z,100672.00
2019-04-16T00:49:03.909Z,100670.61
2019-04-16T00:51:36.873Z,100673.08
2019-04-16T00:54:11.212Z,100678.74
2019-04-16T00:56:46.584Z,100672.11
2019-04-16T00:59:18.594Z,100674.52
2019-04-16T01:01:53.268Z,100683.81
2019-04-16T01:04:29.773Z,100666.92
2019-04-16T01:07:03.181Z,100670.06
2019-04-16T01:09:37.991Z,100665.73
2019-04-16T01:12:10.853Z,100670.58
2019-04-16T01:14:43.599Z,100664.27
2019-04-16T01:17:16.519Z,100672.16
2019-04-16T01:19:48.937Z,100668.07
2019-04-16T01:22:22.079Z,100673.16
2019-04-16T01:24:55.490Z,100670.72
2019-04-16T01:27:41.250Z,100661.30
2019-04-16T01:30:15.732Z,100650.94
2019-04-16T01:33:04.530Z,100645.70
2019-04-16T01:35:56.203Z,100645.95
2019-04-16T01:38:40.133Z,100643.96
2019-04-16T01:41:14.671Z,100636.74
2019-04-16T01:43:47.440Z,100632.06
2019-04-16T01:46:19.904Z,100641.63
2019-04-16T01:48:53.214Z,100634.96
2019-04-16T01:51:26.172Z,100631.37
2019-04-16T01:53:59.111Z,100629.14
2019-04-16T01:56:32.284Z,100630.88
2019-04-16T01:59:05.955Z,100615.88
2019-04-16T02:01:44.723Z,100620.14
2019-04-16T02:04:19.841Z,100612.11
2019-04-16T02:06:54.291Z,100618.11
2019-04-16T02:09:27.309Z,100619.86
2019-04-16T02:12:00.136Z,100621.59
2019-04-16T02:14:33.017Z,100614.13
2019-04-16T02:17:06.046Z,100613.30
2019-04-16T02:19:38.607Z,100616.68
2019-04-16T02:22:13.895Z,100617.03
2019-04-16T02:24:47.859Z,100623.41
2019-04-16T02:27:20.118Z,100619.57
2019-04-16T02:29:53.832Z,100615.95
2019-04-16T02:32:26.559Z,100613.75
2019-04-16T02:34:59.250Z,100618.25
2019-04-16T02:37:35.376Z,100614.30
2019-04-16T02:40:06.990Z,100608.73
2019-04-16T02:42:39.795Z,100606.19
2019-04-16T02:45:13.195Z,100606.77
2019-04-16T02:47:46.061Z,100612.01
2019-04-16T02:50:30.228Z,100614.23
2019-04-16T02:53:26.331Z,100616.19
2019-04-16T02:56:21.223Z,100618.42
2019-04-16T02:59:11.913Z,100626.80
2019-04-16T03:02:01.232Z,100628.75
2019-04-16T03:04:39.378Z,100643.28
2019-04-16T03:07:12.361Z,100640.50
2019-04-16T03:09:45.992Z,100645.73
2019-04-16T03:12:21.023Z,100651.06
2019-04-16T03:14:53.492Z,100654.10
2019-04-16T03:17:39.544Z,100664.91
2019-04-16T03:20:14.170Z,100669.84
2019-04-16T03:22:47.164Z,100677.86
2019-04-16T03:25:19.851Z,100676.39
2019-04-16T03:27:54.381Z,100668.73
2019-04-16T03:30:27.667Z,100671.69
2019-04-16T03:33:00.383Z,100667.96
2019-04-16T03:35:33.423Z,100673.12
2019-04-16T03:38:06.454Z,100677.21
2019-04-16T03:40:39.445Z,100673.16
2019-04-16T03:43:12.177Z,100666.11
2019-04-16T03:45:45.203Z,100665.42
2019-04-16T03:48:20.630Z,100673.72
2019-04-16T03:50:52.914Z,100671.98
2019-04-16T03:53:25.662Z,100677.22
2019-04-16T03:55:59.169Z,100686.88
2019-04-16T03:58:32.073Z,100683.18
2019-04-16T04:01:04.788Z,100687.30
2019-04-16T04:03:38.167Z,100677.07
2019-04-16T04:06:10.663Z,100689.77
2019-04-16T04:08:48.004Z,100694.10
2019-04-16T04:11:17.808Z,100704.53
2019-04-16T04:13:51.113Z,100705.27
2019-04-16T04:16:24.070Z,100710.67
2019-04-16T04:18:56.983Z,100705.67
2019-04-16T04:21:29.911Z,100708.28
2019-04-16T04:24:02.819Z,100717.77
2019-04-16T04:26:41.242Z,100708.27
2019-04-16T04:29:10.540Z,100716.11
2019-04-16T04:31:42.986Z,100714.97
2019-04-16T04:34:17.398Z,100712.91
2019-04-16T04:36:50.215Z,100714.08
2019-04-16T04:39:23.040Z,100719.38
2019-04-16T04:41:57.221Z,100708.56
2019-04-16T04:44:29.893Z,100712.45
2019-04-16T04:47:02.675Z,100719.16
2019-04-16T04:49:35.433Z,100718.58
2019-04-16T04:52:08.075Z,100713.27
2019-04-16T04:54:40.995Z,100712.36
2019-04-16T04:57:13.877Z,100719.36
2019-04-16T04:59:46.378Z,100724.76
2019-04-16T05:02:19.404Z,100726.76
2019-04-16T05:05:08.144Z,100721.52
2019-04-16T05:07:40.915Z,100724.20
2019-04-16T05:10:13.899Z,100723.31
2019-04-16T05:12:46.593Z,100725.76
2019-04-16T05:15:19.343Z,100724.66
2019-04-16T05:17:51.963Z,100721.49
2019-04-16T05:20:25.276Z,100722.92
2019-04-16T05:22:58.162Z,100724.55
2019-04-16T05:25:34.154Z,100723.28
2019-04-16T05:28:05.404Z,100727.71
2019-04-16T05:30:38.073Z,100722.09
2019-04-16T05:33:10.661Z,100723.61
2019-04-16T05:35:43.242Z,100722.55
2019-04-16T05:38:15.821Z,100711.69
2019-04-16T05:40:48.684Z,100706.90
2019-04-16T05:43:22.808Z,100708.18
2019-04-16T05:45:56.267Z,100706.79
2019-04-16T05:48:28.753Z,100712.97
2019-04-16T05:51:01.672Z,100711.91
2019-04-16T05:53:37.345Z,100713.88
2019-04-16T05:56:31.928Z,100705.34
2019-04-16T05:59:04.558Z,100705.78
2019-04-16T06:01:58.932Z,100710.55
2019-04-16T06:04:32.214Z,100715.56
2019-04-16T06:07:07.559Z,100722.01
2019-04-16T06:09:41.494Z,100724.67
2019-04-16T06:12:14.191Z,100728.19
2019-04-16T06:14:55.013Z,100734.59
2019-04-16T06:17:46.519Z,100738.80
2019-04-16T06:20:27.625Z,100736.37
2019-04-16T06:23:09.109Z,100740.11
2019-04-16T06:25:50.740Z,100742.21
2019-04-16T06:28:40.461Z,100742.78
2019-04-16T06:31:36.300Z,100753.17
2019-04-16T06:34:28.185Z,100754.57
2019-04-16T06:37:14.576Z,100755.61
2019-04-16T06:40:02.375Z,100755.57
2019-04-16T06:43:02.822Z,100761.91
2019-04-16T06:45:41.449Z,100757.39
2019-04-16T06:48:25.305Z,100753.97
2019-04-16T06:51:25.814Z,100750.97
2019-04-16T06:54:35.156Z,100747.78
2019-04-16T06:57:40.374Z,100754.73
2019-04-16T07:00:22.149Z,100758.76
2019-04-16T07:03:13.513Z,100764.61
2019-04-16T07:06:05.358Z,100770.37
2019-04-16T07:08:55.837Z,100771.08
2019-04-16T07:11:30.964Z,100776.03
2019-04-16T07:14:03.817Z,100776.61
2019-04-16T07:16:36.562Z,100780.34
2019-04-16T07:19:11.306Z,100783.10
2019-04-16T07:21:48.686Z,100777.99
2019-04-16T07:24:22.003Z,100785.02
2019-04-16T07:26:55.987Z,100791.73
2019-04-16T07:29:41.441Z,100790.09
2019-04-16T07:32:23.541Z,100791.89
2019-04-16T07:35:13.433Z,100794.91
2019-04-16T07:38:16.410Z,100787.84
2019-04-16T07:41:11.058Z,100794.03
2019-04-16T07:43:57.595Z,100791.67
2019-04-16T07:46:47.964Z,100783.55
2019-04-16T07:49:37.742Z,100785.63
2019-04-16T07:52:30.961Z,100789.70
2019-04-16T07:55:16.439Z,100796.09
2019-04-16T07:57:49.448Z,100797.58
2019-04-16T08:00:22.273Z,100801.57
2019-04-16T08:02:54.938Z,100799.14
2019-04-16T08:05:28.115Z,100796.97
2019-04-16T08:08:01.039Z,100797.08
2019-04-16T08:10:33.554Z,100795.39
2019-04-16T08:13:10.362Z,100794.69
2019-04-16T08:15:43.400Z,100791.58
2019-04-16T08:18:16.215Z,100788.55
2019-04-16T08:21:00.580Z,100786.09
2019-04-16T08:23:40.624Z,100799.28
2019-04-16T08:26:13.967Z,100788.81
2019-04-16T08:28:46.853Z,100783.89
2019-04-16T08:31:23.406Z,100789.13
2019-04-16T08:33:56.489Z,100783.16
2019-04-16T08:36:29.250Z,100783.33
2019-04-16T08:39:06.600Z,100784.59
2019-04-16T08:41:38.766Z,100785.78
2019-04-16T08:44:11.357Z,100783.13
2019-04-16T08:46:44.233Z,100774.01
2019-04-16T08:49:22.078Z,100768.89
2019-04-16T08:51:51.533Z,100768.94
2019-04-16T08:54:24.223Z,100772.97
2019-04-16T08:56:57.002Z,100767.38
2019-04-16T08:59:29.802Z,100767.67
2019-04-16T09:02:03.146Z,100764.92
2019-04-16T09:04:36.286Z,100754.84
2019-04-16T09:07:12.983Z,100751.56
2019-04-16T09:09:57.725Z,100743.42
2019-04-16T09:12:32.370Z,100748.00
2019-04-16T09:15:05.922Z,100743.98
2019-04-16T09:17:40.803Z,100736.13
2019-04-16T09:20:23.334Z,100720.42
2019-04-16T09:22:58.853Z,100728.02
2019-04-16T09:25:55.764Z,100729.95
2019-04-16T09:28:45.966Z,100716.66
2019-04-16T09:31:46.914Z,100725.70
2019-04-16T09:34:40.808Z,100724.59
2019-04-16T09:37:50.246Z,100724.19
2019-04-16T09:40:44.635Z,100722.89
2019-04-16T09:43:20.780Z,100714.01
2019-04-16T09:45:53.488Z,100713.59
2019-04-16T09:52:24.978Z,100726.39
2019-04-16T09:54:57.394Z,100725.69
2019-04-16T09:57:31.543Z,100719.25
2019-04-16T10:00:08.303Z,100719.81
2019-04-16T10:02:40.113Z,100712.59
2019-04-16T10:05:13.395Z,100705.11
2019-04-16T10:07:46.219Z,100705.47
2019-04-16T10:10:18.570Z,100709.48
2019-04-16T10:12:50.938Z,100708.63
2019-04-16T10:15:23.569Z,100708.32
2019-04-16T10:17:58.568Z,100706.94
2019-04-16T10:20:30.037Z,100706.30
2019-04-16T10:23:04.027Z,100703.86
2019-04-16T10:25:36.961Z,100701.44
2019-04-16T10:28:19.347Z,100703.62
2019-04-16T10:30:53.761Z,100695.08
2019-04-16T10:33:26.235Z,100698.45
2019-04-16T10:36:01.076Z,100691.79
2019-04-16T10:39:00.447Z,100694.40
2019-04-16T10:41:45.025Z,100698.39
2019-04-16T10:44:39.914Z,100700.35
2019-04-16T10:47:29.990Z,100698.69
2019-04-16T10:50:19.618Z,100697.39
2019-04-16T10:53:25.792Z,100698.05
2019-04-16T10:56:20.674Z,100696.27
2019-04-16T10:59:14.193Z,100702.09
2019-04-16T11:02:03.647Z,100707.23
2019-04-16T11:04:45.356Z,100706.54
2019-04-16T11:07:21.592Z,100705.92
2019-04-16T11:09:56.684Z,100701.07
2019-04-16T11:12:32.477Z,100703.76
2019-04-16T11:15:05.288Z,100692.90
2019-04-16T11:17:37.790Z,100691.70
2019-04-16T11:20:10.289Z,100699.66
2019-04-16T11:22:42.873Z,100700.10
2019-04-16T11:25:15.304Z,100685.63
2019-04-16T11:27:47.809Z,100693.84
2019-04-16T11:30:33.418Z,100694.02
2019-04-16T11:33:05.833Z,100701.94
2019-04-16T11:35:38.357Z,100696.22
2019-04-16T11:38:11.084Z,100699.31
2019-04-16T11:40:44.319Z,100689.88
2019-04-16T11:43:17.359Z,100694.08
2019-04-16T11:45:50.113Z,100696.85
2019-04-16T11:48:22.490Z,100696.63
2019-04-16T11:50:55.486Z,100696.02
2019-04-16T11:53:28.511Z,100693.55
2019-04-16T11:56:01.018Z,100691.25
2019-04-16T11:58:38.953Z,100693.64
2019-04-16T12:01:24.040Z,100684.11
2019-04-16T12:04:24.002Z,100692.52
2019-04-16T12:07:27.278Z,100680.99
2019-04-16T12:10:33.696Z,100677.68
2019-04-16T12:13:30.599Z,100676.27
2019-04-16T12:16:25.459Z,100676.33
2019-04-16T12:19:22.523Z,100672.41
2019-04-16T12:22:29.174Z,100669.31
2019-04-16T12:25:18.123Z,100670.75
2019-04-16T12:28:15.534Z,100668.58
2019-04-16T12:31:16.056Z,100666.00
2019-04-16T12:34:04.056Z,100662.41
2019-04-16T12:37:11.755Z,100662.87
2019-04-16T12:40:02.854Z,100663.25
2019-04-16T12:42:42.274Z,100662.14
2019-04-16T12:45:30.348Z,100666.30
2019-04-16T12:48:21.300Z,100669.56
2019-04-16T12:51:03.539Z,100660.45
2019-04-16T12:53:54.616Z,100656.99
2019-04-16T12:56:47.218Z,100653.67
2019-04-16T12:59:24.160Z,100661.83
2019-04-16T13:02:13.946Z,100655.98
2019-04-16T13:05:05.533Z,100662.86
2019-04-16T13:07:51.650Z,100660.84
2019-04-16T13:10:53.952Z,100655.81
2019-04-16T13:13:42.319Z,100655.76
2019-04-16T13:16:43.420Z,100665.10
2019-04-16T13:19:37.336Z,100664.37
2019-04-16T13:22:10.763Z,100659.53
2019-04-16T13:24:49.360Z,100664.52
2019-04-16T13:27:25.603Z,100657.25
2019-04-16T13:30:01.297Z,100661.55
2019-04-16T13:32:32.048Z,100653.39
2019-04-16T13:35:04.463Z,100650.16
2019-04-16T13:37:38.061Z,100648.53
2019-04-16T13:40:14.887Z,100643.93
2019-04-16T13:42:47.371Z,100641.11
2019-04-16T13:45:40.394Z,100642.97
2019-04-16T13:48:27.471Z,100652.66
2019-04-16T13:51:03.481Z,100650.30
2019-04-16T13:53:41.967Z,100651.26
2019-04-16T13:56:35.735Z,100647.64
2019-04-16T13:59:30.218Z,100656.66
2019-04-16T14:02:32.348Z,100649.17
2019-04-16T14:05:05.977Z,100651.19
2019-04-16T14:07:38.979Z,100651.34
2019-04-16T14:10:11.923Z,100663.10
2019-04-16T14:12:44.822Z,100659.92
2019-04-16T14:15:31.125Z,100667.53
2019-04-16T14:17:53.379Z,100667.13
2019-04-16T14:20:26.305Z,100672.80
2019-04-16T14:22:59.205Z,100679.44
2019-04-16T14:25:32.040Z,100676.93
2019-04-16T14:28:04.964Z,100682.36
2019-04-16T14:30:42.830Z,100676.20
2019-04-16T14:33:19.978Z,100676.05
2019-04-16T14:35:52.357Z,100673.64
2019-04-16T14:38:32.723Z,100661.30
2019-04-16T14:41:05.448Z,100669.41
2019-04-16T14:43:40.553Z,100668.38
2019-04-16T14:46:13.128Z,100676.03
2019-04-16T14:48:46.730Z,100674.23
2019-04-16T14:51:19.388Z,100677.80
2019-04-16T14:54:05.292Z,100668.97
2019-04-16T14:56:39.975Z,100667.02
2019-04-16T14:59:30.012Z,100664.23
2019-04-16T15:02:00.605Z,100655.49
2019-04-16T15:04:57.121Z,100653.34
2019-04-16T15:07:51.767Z,100651.61
2019-04-16T15:10:56.621Z,100640.95
2019-04-16T15:13:51.221Z,100640.58
2019-04-16T15:16:42.491Z,100647.03
2019-04-16T15:19:32.049Z,100661.63
2019-04-16T15:22:21.537Z,100656.63
2019-04-16T15:25:01.773Z,100653.49
2019-04-16T15:27:52.727Z,100652.56
2019-04-16T15:30:43.621Z,100648.13
2019-04-16T15:33:35.764Z,100651.77
2019-04-16T15:36:32.252Z,100653.40
2019-04-16T15:39:23.102Z,100660.19
2019-04-16T15:42:17.366Z,100657.48
2019-04-16T15:45:18.225Z,100655.39
2019-04-16T15:48:04.881Z,100655.76
2019-04-16T15:50:54.707Z,100654.83
2019-04-16T15:53:50.574Z,100651.56
2019-04-16T15:56:44.441Z,100642.58
2019-04-16T15:59:24.523Z,100645.16
2019-04-16T16:02:21.840Z,100651.00
2019-04-16T16:05:00.023Z,100654.88
2019-04-16T16:07:37.207Z,100654.88
2019-04-16T16:10:31.747Z,100661.89
2019-04-16T16:13:04.158Z,100650.20
2019-04-16T16:15:40.215Z,100656.14
2019-04-16T16:18:10.930Z,100649.27
2019-04-16T16:20:43.405Z,100653.25
2019-04-16T16:23:15.977Z,100652.08
2019-04-16T16:25:48.765Z,100650.10
2019-04-16T16:28:21.262Z,100656.75
2019-04-16T16:30:53.748Z,100652.77
2019-04-16T16:33:26.587Z,100647.96
2019-04-16T16:36:00.209Z,100651.37
2019-04-16T16:38:32.784Z,100648.09
2019-04-16T16:41:05.574Z,100643.42
2019-04-16T16:43:38.046Z,100643.20
2019-04-16T16:46:32.241Z,100640.19
2019-04-16T16:49:05.113Z,100644.40
2019-04-16T16:51:39.134Z,100639.36
2019-04-16T16:54:24.035Z,100635.15
2019-04-16T16:57:08.251Z,100633.37
2019-04-16T16:59:44.546Z,100637.39
2019-04-16T17:02:23.058Z,100639.95
2019-04-16T17:04:55.558Z,100639.49
2019-04-16T17:07:28.117Z,100641.47
2019-04-16T17:10:00.731Z,100635.62
2019-04-16T17:12:36.528Z,100637.63
2019-04-16T17:15:10.780Z,100638.00
2019-04-16T17:17:43.245Z,100637.77
2019-04-16T17:20:15.744Z,100641.50
2019-04-16T17:22:48.261Z,100645.84
2019-04-16T17:25:35.224Z,100646.19
2019-04-16T17:27:55.169Z,100644.34
2019-04-16T17:30:27.905Z,100654.50
2019-04-16T17:33:00.349Z,100656.03
2019-04-16T17:35:32.913Z,100651.96
2019-04-16T17:38:05.827Z,100656.50
2019-04-16T17:40:51.063Z,100654.06
2019-04-16T17:44:00.484Z,100651.97
2019-04-16T17:46:43.532Z,100652.80
2019-04-16T17:49:29.878Z,100655.27
2019-04-16T17:52:09.346Z,100651.33
2019-04-16T17:54:56.087Z,100648.95
2019-04-16T17:57:47.966Z,100648.62
2019-04-16T18:00:44.273Z,100654.12
2019-04-16T18:03:37.762Z,100656.22
2019-04-16T18:06:15.125Z,100658.34
2019-04-16T18:09:09.393Z,100659.84
2019-04-16T18:12:09.348Z,100657.41
2019-04-16T18:14:59.308Z,100655.53
2019-04-16T18:17:56.515Z,100650.42
2019-04-16T18:20:57.118Z,100655.33
2019-04-16T18:23:34.211Z,100656.02
2019-04-16T18:26:40.391Z,100661.75
2019-04-16T18:29:33.103Z,100660.48
2019-04-16T18:32:16.201Z,100662.00
2019-04-16T18:35:16.459Z,100661.53
2019-04-16T18:38:12.883Z,100665.97
2019-04-16T18:41:02.468Z,100676.58
2019-04-16T18:43:49.174Z,100662.33
2019-04-16T18:46:46.217Z,100671.21
2019-04-16T18:49:21.372Z,100665.38
2019-04-16T18:51:53.859Z,100657.33
2019-04-16T18:54:26.225Z,100654.30
2019-04-16T18:56:58.952Z,100657.45
2019-04-16T18:59:31.860Z,100660.59
2019-04-16T19:02:08.764Z,100658.39
2019-04-16T19:04:40.297Z,100663.75
2019-04-16T19:07:12.800Z,100659.78
2019-04-16T19:09:45.580Z,100669.12
2019-04-16T19:12:18.120Z,100669.48
2019-04-16T19:14:51.253Z,100670.05
2019-04-16T19:17:23.935Z,100670.87
2019-04-16T19:19:57.085Z,100675.64
2019-04-16T19:22:29.910Z,100677.17
2019-04-16T19:25:02.398Z,100674.14
2019-04-16T19:27:34.794Z,100675.90
2019-04-16T19:30:08.002Z,100672.86
2019-04-16T19:32:42.746Z,100674.83
2019-04-16T19:35:19.126Z,100676.23
2019-04-16T19:37:49.295Z,100676.83
2019-04-16T19:40:22.385Z,100671.79
2019-04-16T19:42:57.844Z,100673.78
2019-04-16T19:45:29.903Z,100675.31
2019-04-16T19:48:03.797Z,100677.04
2019-04-16T19:50:37.212Z,100668.53
2019-04-16T19:53:13.492Z,100671.45
2019-04-16T19:55:45.817Z,100675.41
2019-04-16T19:58:19.237Z,100666.21
2019-04-16T20:00:54.021Z,100665.97
2019-04-16T20:03:30.140Z,100661.77
2019-04-16T20:06:00.249Z,100666.54
2019-04-16T20:08:36.673Z,100661.06
2019-04-16T20:11:07.208Z,100654.06
2019-04-16T20:13:40.683Z,100661.95
2019-04-16T20:16:22.291Z,100654.48
2019-04-16T20:18:55.463Z,100653.20
2019-04-16T20:21:28.669Z,100647.50
2019-04-16T20:24:01.970Z,100657.30
2019-04-16T20:26:34.805Z,100649.02
2019-04-16T20:29:07.430Z,100646.55
2019-04-16T20:31:40.007Z,100651.11
2019-04-16T20:34:13.315Z,100648.43
2019-04-16T20:36:45.668Z,100644.35
2019-04-16T20:39:18.518Z,100648.55
2019-04-16T20:41:53.124Z,100638.75
2019-04-16T20:44:26.808Z,100638.16
2019-04-16T20:47:02.530Z,100641.19
2019-04-16T20:49:35.321Z,100633.84
2019-04-16T20:52:07.671Z,100627.08
2019-04-16T20:54:44.340Z,100627.78
2019-04-16T20:57:15.842Z,100625.94
2019-04-16T20:59:48.361Z,100620.21
2019-04-16T21:02:21.159Z,100625.33
2019-04-16T21:04:54.007Z,100623.86
2019-04-16T21:07:26.470Z,100620.94
2019-04-16T21:09:59.848Z,100621.74
2019-04-16T21:12:33.007Z,100624.21
2019-04-16T21:15:09.637Z,100616.25
2019-04-16T21:17:42.105Z,100617.67
2019-04-16T21:20:19.346Z,100618.58
2019-04-16T21:22:48.830Z,100622.33
2019-04-16T21:25:23.761Z,100616.83
2019-04-16T21:28:12.126Z,100617.77
2019-04-16T21:30:45.441Z,100620.45
2019-04-16T21:33:27.428Z,100608.64
2019-04-16T21:36:04.791Z,100617.64
2019-04-16T21:39:05.463Z,100614.14
2019-04-16T21:41:37.940Z,100621.86
2019-04-16T21:44:12.990Z,100620.13
2019-04-16T21:46:44.588Z,100617.18
2019-04-16T21:49:17.124Z,100617.91
2019-04-16T21:52:08.642Z,100616.83
2019-04-16T21:54:41.287Z,100616.48
2019-04-16T21:57:14.361Z,100620.47
2019-04-16T21:59:50.362Z,100624.64
2019-04-16T22:02:24.714Z,100609.47
2019-04-16T22:04:58.742Z,100613.08
2019-04-16T22:07:32.153Z,100611.33
2019-04-16T22:10:06.009Z,100610.98
2019-04-16T22:12:39.454Z,100614.83
2019-04-16T22:15:16.248Z,100613.31
2019-04-16T22:17:48.768Z,100606.44
2019-04-16T22:20:21.089Z,100614.72
2019-04-16T22:22:53.447Z,100608.97
2019-04-16T22:25:26.663Z,100615.77
2019-04-16T22:28:00.511Z,100609.69
2019-04-16T22:30:32.996Z,100615.05
2019-04-16T22:33:07.022Z,100614.57
2019-04-16T22:35:39.548Z,100619.13
2019-04-16T22:38:14.275Z,100609.22
2019-04-16T22:40:54.976Z,100608.73
2019-04-16T22:43:51.061Z,100611.98
2019-04-16T22:46:42.119Z,100607.55
2019-04-16T22:49:14.692Z,100614.74
2019-04-16T22:51:47.228Z,100614.11
2019-04-16T22:54:20.781Z,100606.20
2019-04-16T22:57:18.192Z,100601.41
2019-04-16T22:59:50.756Z,100609.23
2019-04-16T23:02:28.178Z,100606.44
2019-04-16T23:05:00.846Z,100612.27
2019-04-16T23:07:33.300Z,100613.22
2019-04-16T23:10:05.996Z,100622.33
2019-04-16T23:12:38.536Z,100616.97
2019-04-16T23:15:14.123Z,100615.94
2019-04-16T23:17:49.191Z,100614.78
2019-04-16T23:20:29.609Z,100616.41
2019-04-16T23:23:00.154Z,100616.17
2019-04-16T23:25:32.486Z,100615.45
2019-04-16T23:28:09.493Z,100609.75
2019-04-16T23:30:39.236Z,100610.91
2019-04-16T23:33:12.223Z,100612.98
2019-04-16T23:35:45.899Z,100608.64
2019-04-16T23:38:18.459Z,100613.75
2019-04-16T23:40:51.620Z,100616.42
2019-04-16T23:43:53.517Z,100611.19
2019-04-16T23:47:00.052Z,100611.98
2019-04-16T23:49:40.815Z,100612.83
2019-04-16T23:52:16.663Z,100607.56
2019-04-16T23:55:01.791Z,100607.80
2019-04-16T23:57:42.284Z,100611.55
